Time;durP1;ratioP1;P1;durP2;ratioP2;P2;SDS_P1;SDS_P2;PMS_P1;PMS_P2;Temp;Humidity;BMP_temperature;BMP_pressure;BME280_temperature;BME280_humidity;BME280_pressure;Samples;Min_cycle;Max_cycle;Signal;HPM_P1;HPM_P2
2022/04/26 03:36:38;;;;;;;20.48;10.98;;;;;;;;;;5018746;28;20502;-64
2022/04/26 03:39:04;;;;;;;21.40;10.98;;;;;;;;;;5020798;28;20038;-64
2022/04/26 03:41:30;;;;;;;23.48;11.50;;;;;;;;;;5027283;28;20049;-64
2022/04/26 03:43:55;;;;;;;18.60;11.50;;;;;;;;;;5017162;28;20030;-64
2022/04/26 03:46:21;;;;;;;20.80;11.60;;;;;;;;;;5024892;28;20495;-64
2022/04/26 03:48:46;;;;;;;22.40;10.95;;;;;;;;;;5031496;28;20029;-64
2022/04/26 03:51:11;;;;;;;21.27;10.80;;;;;;;;;;5028846;28;20069;-64
2022/04/26 03:53:37;;;;;;;19.45;11.43;;;;;;;;;;5012535;28;20384;-64
2022/04/26 03:56:03;;;;;;;22.48;11.65;;;;;;;;;;5017630;28;20079;-64
2022/04/26 03:58:29;;;;;;;27.67;12.32;;;;;;;;;;5028959;28;20033;-64
2022/04/26 04:00:55;;;;;;;23.17;11.98;;;;;;;;;;5029390;28;20100;-64
2022/04/26 04:03:20;;;;;;;26.55;12.88;;;;;;;;;;5030302;28;20468;-65
2022/04/26 04:05:45;;;;;;;25.13;12.55;;;;;;;;;;5028847;28;20117;-64
2022/04/26 04:08:11;;;;;;;24.10;11.95;;;;;;;;;;5030144;28;20490;-64
2022/04/26 04:10:36;;;;;;;22.92;11.68;;;;;;;;;;5025680;28;20156;-64
2022/04/26 04:13:02;;;;;;;23.65;12.05;;;;;;;;;;5050690;28;20451;-64
2022/04/26 04:15:28;;;;;;;26.70;12.82;;;;;;;;;;5048319;28;20037;-64
2022/04/26 04:17:53;;;;;;;24.05;11.40;;;;;;;;;;5053310;28;20029;-64
2022/04/26 04:20:19;;;;;;;21.23;11.57;;;;;;;;;;5029290;28;20037;-64
2022/04/26 04:22:45;;;;;;;29.15;12.32;;;;;;;;;;5019081;28;20377;-64
2022/04/26 04:25:10;;;;;;;24.52;11.18;;;;;;;;;;5021347;28;20116;-64
2022/04/26 04:27:35;;;;;;;25.17;12.18;;;;;;;;;;5033943;28;20339;-64
2022/04/26 04:30:02;;;;;;;23.98;12.68;;;;;;;;;;5038510;28;20462;-63
2022/04/26 04:32:31;;;;;;;23.73;11.95;;;;;;;;;;5053647;28;20486;-65
2022/04/26 04:34:56;;;;;;;24.30;11.73;;;;;;;;;;5045045;28;20036;-64
2022/04/26 04:37:22;;;;;;;24.58;12.90;;;;;;;;;;5053276;28;20037;-65
2022/04/26 04:39:49;;;;;;;25.33;12.35;;;;;;;;;;5052919;28;20057;-65
2022/04/26 04:42:15;;;;;;;23.80;12.35;;;;;;;;;;5042347;28;20120;-65
2022/04/26 04:44:40;;;;;;;22.90;12.00;;;;;;;;;;5041087;28;20172;-65
2022/04/26 04:47:06;;;;;;;24.23;12.38;;;;;;;;;;5054455;28;20029;-65
2022/04/26 04:49:31;;;;;;;30.63;12.77;;;;;;;;;;5034636;28;20026;-65
2022/04/26 04:51:56;;;;;;;24.13;11.98;;;;;;;;;;5015236;28;20034;-65
2022/04/26 04:54:22;;;;;;;25.38;11.48;;;;;;;;;;5031416;28;20368;-66
2022/04/26 04:56:47;;;;;;;21.58;11.55;;;;;;;;;;5032817;28;20112;-65
2022/04/26 04:59:13;;;;;;;24.63;12.27;;;;;;;;;;5025621;28;20030;-65
2022/04/26 05:01:38;;;;;;;24.10;12.10;;;;;;;;;;5048853;28;20617;-65
2022/04/26 05:04:03;;;;;;;23.55;11.73;;;;;;;;;;5051945;28;20029;-65
2022/04/26 05:06:29;;;;;;;24.08;11.32;;;;;;;;;;5043832;28;20053;-65
2022/04/26 05:08:54;;;;;;;20.42;10.60;;;;;;;;;;5037673;28;20037;-65
2022/04/26 05:11:20;;;;;;;20.95;11.02;;;;;;;;;;5053507;28;20025;-65
2022/04/26 05:13:45;;;;;;;23.40;10.32;;;;;;;;;;5035199;28;20044;-65
2022/04/26 05:16:11;;;;;;;18.17;10.45;;;;;;;;;;5048566;28;20033;-65
2022/04/26 05:18:36;;;;;;;19.42;10.40;;;;;;;;;;5041316;28;20117;-65
2022/04/26 05:21:01;;;;;;;20.00;10.52;;;;;;;;;;5025117;28;20529;-66
2022/04/26 05:26:11;;;;;;;21.00;10.73;;;;;;;;;;5036988;28;20094;-65
2022/04/26 05:28:37;;;;;;;18.55;10.55;;;;;;;;;;5037372;28;20033;-64
2022/04/26 05:31:02;;;;;;;17.85;10.25;;;;;;;;;;5053342;28;20367;-63
2022/04/26 05:33:27;;;;;;;15.82;10.00;;;;;;;;;;5050234;28;20032;-64
2022/04/26 05:35:53;;;;;;;17.05;10.25;;;;;;;;;;5051676;28;20433;-64
2022/04/26 05:38:19;;;;;;;18.48;9.98;;;;;;;;;;5045731;28;20036;-65
2022/04/26 05:40:44;;;;;;;18.90;9.90;;;;;;;;;;5048361;28;20048;-64
2022/04/26 05:43:10;;;;;;;19.92;10.25;;;;;;;;;;5050989;28;20040;-64
2022/04/26 05:45:36;;;;;;;22.35;10.27;;;;;;;;;;5023823;28;20415;-64
2022/04/26 05:48:01;;;;;;;21.58;9.70;;;;;;;;;;5024446;28;20104;-64
2022/04/26 05:50:27;;;;;;;20.30;10.10;;;;;;;;;;5032085;28;20060;-64
2022/04/26 05:52:52;;;;;;;17.48;10.63;;;;;;;;;;5022858;28;20108;-65
2022/04/26 05:55:18;;;;;;;18.35;10.50;;;;;;;;;;5013913;28;20467;-65
2022/04/26 05:57:44;;;;;;;19.00;10.45;;;;;;;;;;5026354;28;20045;-65
2022/04/26 06:00:11;;;;;;;20.23;11.00;;;;;;;;;;5018177;28;20048;-65
2022/04/26 06:02:37;;;;;;;18.05;10.40;;;;;;;;;;5049625;28;20119;-65
2022/04/26 06:05:03;;;;;;;20.63;10.88;;;;;;;;;;5037498;28;20447;-65
2022/04/26 06:07:28;;;;;;;18.55;10.35;;;;;;;;;;5047010;28;20351;-65
2022/04/26 06:09:55;;;;;;;20.92;10.80;;;;;;;;;;5048842;28;20032;-66
2022/04/26 06:12:23;;;;;;;18.83;10.30;;;;;;;;;;5050472;28;20453;-65
2022/04/26 06:14:49;;;;;;;16.70;10.02;;;;;;;;;;5044369;28;20032;-65
2022/04/26 06:17:15;;;;;;;18.90;10.55;;;;;;;;;;5035673;28;20033;-64
2022/04/26 06:19:40;;;;;;;20.83;10.70;;;;;;;;;;5034685;28;20028;-64
2022/04/26 06:22:06;;;;;;;20.23;10.90;;;;;;;;;;5039367;28;20507;-64
2022/04/26 06:24:31;;;;;;;20.58;11.13;;;;;;;;;;5036688;28;20116;-64
2022/04/26 06:26:56;;;;;;;18.50;10.32;;;;;;;;;;5051525;28;20070;-63
2022/04/26 06:29:22;;;;;;;18.63;10.00;;;;;;;;;;5048305;28;20379;-63
2022/04/26 06:31:47;;;;;;;19.95;11.07;;;;;;;;;;5046458;28;20029;-65
2022/04/26 06:34:13;;;;;;;19.80;10.30;;;;;;;;;;5020965;28;20025;-64
2022/04/26 06:36:38;;;;;;;14.13;9.48;;;;;;;;;;5028231;28;20029;-64
2022/04/26 06:39:04;;;;;;;16.92;10.23;;;;;;;;;;5045490;28;20119;-64
2022/04/26 06:41:30;;;;;;;15.70;10.20;;;;;;;;;;5045376;28;20045;-63
2022/04/26 06:43:55;;;;;;;17.00;10.05;;;;;;;;;;5031274;28;20531;-63
2022/04/26 06:46:21;;;;;;;18.48;10.30;;;;;;;;;;5051983;28;20037;-64
2022/04/26 06:48:49;;;;;;;18.42;10.32;;;;;;;;;;5038702;28;20029;-64
2022/04/26 06:51:17;;;;;;;20.02;10.52;;;;;;;;;;5030222;28;20030;-63
2022/04/26 06:53:42;;;;;;;18.95;10.43;;;;;;;;;;5047008;28;20032;-63
2022/04/26 06:56:08;;;;;;;14.88;9.85;;;;;;;;;;5048461;28;20032;-64
2022/04/26 06:58:33;;;;;;;16.40;9.95;;;;;;;;;;5047815;28;20546;-64
2022/04/26 07:01:00;;;;;;;16.73;9.73;;;;;;;;;;5049490;28;20124;-63
2022/04/26 07:03:26;;;;;;;18.30;10.85;;;;;;;;;;5051327;28;20386;-64
2022/04/26 07:05:52;;;;;;;19.23;10.95;;;;;;;;;;5049865;28;20419;-64
2022/04/26 07:08:18;;;;;;;19.55;11.43;;;;;;;;;;5025147;28;20087;-63
2022/04/26 07:10:43;;;;;;;19.65;10.73;;;;;;;;;;5048472;28;20039;-63
2022/04/26 07:13:08;;;;;;;16.45;10.75;;;;;;;;;;5046114;28;20403;-64
2022/04/26 07:15:34;;;;;;;20.30;11.60;;;;;;;;;;5044541;28;20029;-63
2022/04/26 07:17:59;;;;;;;19.73;11.57;;;;;;;;;;5049887;28;20060;-64
2022/04/26 07:20:26;;;;;;;17.95;11.27;;;;;;;;;;5023372;28;20037;-63
2022/04/26 07:22:52;;;;;;;18.88;11.30;;;;;;;;;;5032533;28;20095;-63
2022/04/26 07:25:18;;;;;;;17.98;11.43;;;;;;;;;;5033165;28;20033;-64
2022/04/26 07:27:43;;;;;;;19.52;11.57;;;;;;;;;;5030593;28;20060;-64
2022/04/26 07:30:09;;;;;;;16.75;11.25;;;;;;;;;;5031817;28;20556;-65
2022/04/26 07:35:19;;;;;;;21.27;11.85;;;;;;;;;;5029862;28;20041;-63
2022/04/26 07:37:44;;;;;;;19.48;12.18;;;;;;;;;;5017930;28;20026;-63
2022/04/26 07:40:10;;;;;;;20.80;12.15;;;;;;;;;;5039721;28;20036;-65
2022/04/26 07:42:35;;;;;;;20.77;12.85;;;;;;;;;;5032327;28;20494;-63
2022/04/26 07:45:01;;;;;;;17.30;12.07;;;;;;;;;;5050202;28;20025;-65
2022/04/26 07:47:29;;;;;;;15.98;10.88;;;;;;;;;;5048486;28;20502;-65
2022/04/26 07:49:54;;;;;;;20.48;11.45;;;;;;;;;;5034730;28;20026;-67
2022/04/26 07:52:21;;;;;;;17.52;11.10;;;;;;;;;;5021169;28;20037;-64
2022/04/26 07:54:47;;;;;;;18.20;11.77;;;;;;;;;;5035068;28;20701;-64
2022/04/26 07:57:12;;;;;;;19.85;11.90;;;;;;;;;;5034275;28;20526;-65
2022/04/26 07:59:38;;;;;;;20.80;12.25;;;;;;;;;;5054486;28;20032;-65
2022/04/26 08:02:10;;;;;;;19.55;12.20;;;;;;;;;;5050272;28;20029;-66
2022/04/26 08:04:36;;;;;;;23.50;13.30;;;;;;;;;;5025292;28;20037;-65
2022/04/26 08:07:02;;;;;;;21.05;12.52;;;;;;;;;;5045859;28;20038;-65
2022/04/26 08:09:28;;;;;;;24.52;12.35;;;;;;;;;;5042876;28;20029;-64
2022/04/26 08:11:53;;;;;;;22.90;12.65;;;;;;;;;;5042759;28;20029;-65
2022/04/26 08:14:20;;;;;;;19.05;13.07;;;;;;;;;;5046391;28;20387;-67
2022/04/26 08:16:45;;;;;;;20.95;12.52;;;;;;;;;;5034006;28;20022;-66
2022/04/26 08:19:11;;;;;;;20.92;13.15;;;;;;;;;;5035266;28;20087;-65
2022/04/26 08:21:37;;;;;;;21.70;13.07;;;;;;;;;;5031326;28;20037;-66
2022/04/26 08:29:30;;;;;;;20.77;12.88;;;;;;;;;;5044819;28;20086;-64
2022/04/26 08:31:56;;;;;;;21.00;13.00;;;;;;;;;;5036521;28;20434;-64
2022/04/26 08:34:22;;;;;;;22.20;12.57;;;;;;;;;;5027287;28;20029;-64
2022/04/26 08:36:48;;;;;;;22.33;13.02;;;;;;;;;;5053654;28;20033;-64
2022/04/26 08:39:14;;;;;;;17.35;12.25;;;;;;;;;;5049397;28;20036;-65
2022/04/26 08:41:39;;;;;;;19.77;12.80;;;;;;;;;;5025208;28;20495;-64
2022/04/26 08:44:11;;;;;;;21.25;12.25;;;;;;;;;;5034269;28;20403;-65
2022/04/26 08:52:07;;;;;;;20.48;11.93;;;;;;;;;;5034103;28;20044;-65
2022/04/26 08:54:33;;;;;;;19.02;12.25;;;;;;;;;;5033379;28;21611;-65
2022/04/26 08:56:59;;;;;;;16.90;11.20;;;;;;;;;;5033255;28;20029;-65
2022/04/26 08:59:26;;;;;;;19.77;12.05;;;;;;;;;;5035387;28;20022;-65
2022/04/26 09:02:19;;;;;;;17.58;11.60;;;;;;;;;;5029108;28;20025;-65
2022/04/26 09:04:49;;;;;;;21.40;13.23;;;;;;;;;;5052909;28;20466;-65
2022/04/26 09:07:28;;;;;;;18.73;12.32;;;;;;;;;;5047285;28;20029;-64
2022/04/26 09:10:10;;;;;;;19.92;12.07;;;;;;;;;;5032670;28;20041;-64
2022/04/26 09:13:01;;;;;;;18.63;12.02;;;;;;;;;;5033066;28;20116;-66
2022/04/26 09:15:39;;;;;;;18.75;11.68;;;;;;;;;;5033597;28;20147;-65
2022/04/26 09:18:20;;;;;;;17.55;11.82;;;;;;;;;;5034943;28;20586;-64
2022/04/26 09:20:47;;;;;;;16.60;12.13;;;;;;;;;;5026620;28;20480;-64
2022/04/26 09:23:24;;;;;;;20.98;12.82;;;;;;;;;;5019508;28;20078;-64
2022/04/26 09:26:10;;;;;;;17.95;11.93;;;;;;;;;;5046277;28;20086;-65
2022/04/26 09:28:39;;;;;;;20.10;12.13;;;;;;;;;;5050650;28;20033;-65
2022/04/26 09:31:24;;;;;;;19.48;11.95;;;;;;;;;;5049935;28;20033;-64
2022/04/26 09:33:52;;;;;;;17.90;12.32;;;;;;;;;;5050670;28;20041;-65
2022/04/26 09:36:20;;;;;;;21.45;13.20;;;;;;;;;;5053470;28;20079;-65
2022/04/26 09:38:59;;;;;;;18.65;12.40;;;;;;;;;;5049677;28;20098;-65
2022/04/26 09:41:26;;;;;;;18.65;12.20;;;;;;;;;;5016672;28;20038;-65
2022/04/26 09:44:29;;;;;;;16.90;12.10;;;;;;;;;;5027004;28;20064;-66
2022/04/26 09:46:55;;;;;;;16.38;12.02;;;;;;;;;;5052328;28;20036;-65
2022/04/26 09:49:22;;;;;;;18.88;12.05;;;;;;;;;;5034730;28;20076;-66
2022/04/26 09:51:59;;;;;;;17.58;12.13;;;;;;;;;;5025330;28;20433;-64
2022/04/26 09:54:25;;;;;;;18.73;12.13;;;;;;;;;;5045652;28;20075;-65
2022/04/26 09:56:52;;;;;;;18.05;12.32;;;;;;;;;;5033696;28;20029;-65
2022/04/26 09:59:28;;;;;;;16.80;11.32;;;;;;;;;;5043956;28;20045;-66
2022/04/26 10:01:59;;;;;;;16.77;11.85;;;;;;;;;;5021017;28;20421;-65
2022/04/26 10:04:28;;;;;;;15.18;11.32;;;;;;;;;;5048355;28;20025;-65
2022/04/26 10:07:00;;;;;;;16.17;11.70;;;;;;;;;;5050170;28;20045;-66
2022/04/26 10:09:26;;;;;;;16.48;11.45;;;;;;;;;;5035135;28;20045;-64
2022/04/26 10:12:00;;;;;;;17.15;11.50;;;;;;;;;;5044424;28;20037;-65
2022/04/26 10:14:28;;;;;;;16.23;11.90;;;;;;;;;;5026566;28;20033;-65
2022/04/26 10:16:54;;;;;;;15.98;11.13;;;;;;;;;;5036500;28;20036;-65
2022/04/26 10:19:19;;;;;;;17.92;12.07;;;;;;;;;;5034794;28;20108;-65
2022/04/26 10:21:46;;;;;;;15.30;11.85;;;;;;;;;;5017784;28;20120;-65
2022/04/26 10:24:18;;;;;;;17.23;11.70;;;;;;;;;;5012470;28;20053;-66
2022/04/26 10:26:43;;;;;;;15.68;11.55;;;;;;;;;;5016828;28;20029;-65
2022/04/26 10:29:09;;;;;;;14.75;10.85;;;;;;;;;;5032525;28;20032;-65
2022/04/26 10:31:42;;;;;;;14.80;11.23;;;;;;;;;;5033012;28;20033;-65
2022/04/26 10:34:31;;;;;;;16.90;11.27;;;;;;;;;;5041864;28;20116;-64
2022/04/26 10:37:06;;;;;;;16.42;11.60;;;;;;;;;;5011721;28;20092;-64
2022/04/26 10:39:40;;;;;;;16.85;11.75;;;;;;;;;;5031957;28;20051;-65
2022/04/26 10:42:11;;;;;;;17.33;11.68;;;;;;;;;;5050855;28;20033;-65
2022/04/26 10:44:44;;;;;;;18.25;12.30;;;;;;;;;;5040449;28;20033;-65
2022/04/26 10:47:09;;;;;;;17.23;11.68;;;;;;;;;;5050876;28;20371;-61
2022/04/26 10:49:38;;;;;;;17.25;11.82;;;;;;;;;;5028648;28;20079;-60
2022/04/26 10:52:13;;;;;;;15.02;12.52;;;;;;;;;;5011941;28;20026;-61
2022/04/26 10:54:45;;;;;;;20.70;12.50;;;;;;;;;;5046608;28;20033;-61
2022/04/26 10:57:21;;;;;;;18.23;12.35;;;;;;;;;;5040604;28;20033;-60
2022/04/26 10:59:48;;;;;;;19.13;12.52;;;;;;;;;;5020380;28;20467;-61
2022/04/26 11:02:21;;;;;;;18.45;12.52;;;;;;;;;;5025714;28;20124;-61
2022/04/26 11:05:01;;;;;;;18.05;12.68;;;;;;;;;;5043827;28;20034;-60
2022/04/26 11:07:27;;;;;;;19.58;12.50;;;;;;;;;;5041932;28;20040;-61
2022/04/26 11:09:54;;;;;;;17.63;12.88;;;;;;;;;;5050598;28;20029;-61
2022/04/26 11:12:21;;;;;;;16.88;12.13;;;;;;;;;;5049053;28;20029;-61
2022/04/26 11:14:50;;;;;;;17.55;12.80;;;;;;;;;;5049661;28;20037;-61
2022/04/26 11:17:17;;;;;;;16.83;12.23;;;;;;;;;;5045794;28;20338;-61
2022/04/26 11:19:53;;;;;;;16.85;12.48;;;;;;;;;;5031070;28;20030;-61
2022/04/26 11:22:20;;;;;;;17.33;12.43;;;;;;;;;;5027285;28;20041;-61
2022/04/26 11:30:31;;;;;;;19.20;14.48;;;;;;;;;;5052782;28;20052;-61
2022/04/26 11:33:02;;;;;;;19.55;14.25;;;;;;;;;;5013907;28;20468;-60
2022/04/26 11:35:29;;;;;;;19.48;15.02;;;;;;;;;;5047752;28;20041;-60
2022/04/26 11:38:09;;;;;;;17.65;14.38;;;;;;;;;;5047984;28;20045;-61
2022/04/26 11:40:38;;;;;;;20.80;14.18;;;;;;;;;;5018445;28;20101;-61
2022/04/26 11:43:20;;;;;;;20.42;15.32;;;;;;;;;;5044623;28;20546;-61
2022/04/26 11:45:50;;;;;;;21.23;16.02;;;;;;;;;;5040763;28;20033;-60
2022/04/26 11:48:21;;;;;;;21.38;15.70;;;;;;;;;;5055736;28;20367;-61
2022/04/26 11:50:50;;;;;;;19.02;14.52;;;;;;;;;;5038934;28;20041;-61
2022/04/26 11:53:18;;;;;;;19.40;14.30;;;;;;;;;;5033558;28;20471;-61
2022/04/26 11:55:52;;;;;;;19.02;13.93;;;;;;;;;;5032334;28;20121;-62
2022/04/26 11:58:19;;;;;;;19.83;13.65;;;;;;;;;;5037320;28;20060;-60
2022/04/26 12:01:00;;;;;;;17.77;13.57;;;;;;;;;;5047379;28;20040;-61
2022/04/26 12:03:28;;;;;;;17.08;12.88;;;;;;;;;;5036159;28;20035;-61
2022/04/26 12:05:56;;;;;;;15.75;12.80;;;;;;;;;;5045931;28;20037;-60
2022/04/26 12:08:22;;;;;;;15.60;12.32;;;;;;;;;;5053199;28;20025;-59
2022/04/26 12:10:48;;;;;;;15.70;12.60;;;;;;;;;;5032439;28;20040;-59
2022/04/26 12:13:16;;;;;;;15.07;12.25;;;;;;;;;;5015381;28;20034;-62
2022/04/26 12:15:42;;;;;;;16.70;11.75;;;;;;;;;;5045128;28;20040;-60
2022/04/26 12:18:14;;;;;;;17.42;11.73;;;;;;;;;;5037393;28;20041;-59
2022/04/26 12:21:02;;;;;;;16.55;13.30;;;;;;;;;;5025296;28;20034;-60
2022/04/26 12:23:29;;;;;;;16.88;13.57;;;;;;;;;;5032162;28;20052;-60
2022/04/26 12:26:03;;;;;;;16.38;13.15;;;;;;;;;;5040406;28;20029;-59
2022/04/26 12:28:29;;;;;;;15.73;13.20;;;;;;;;;;5037508;28;20029;-59
2022/04/26 12:30:55;;;;;;;19.38;13.90;;;;;;;;;;5034443;28;20029;-61
2022/04/26 12:33:30;;;;;;;19.52;14.30;;;;;;;;;;5053650;28;20025;-61
2022/04/26 12:36:04;;;;;;;18.98;14.40;;;;;;;;;;5047677;28;20135;-61
2022/04/26 12:38:30;;;;;;;18.45;13.68;;;;;;;;;;5041506;28;20025;-59
2022/04/26 12:41:06;;;;;;;17.58;13.90;;;;;;;;;;5036293;28;20037;-61
2022/04/26 12:43:33;;;;;;;15.85;12.77;;;;;;;;;;5043197;28;20108;-61
2022/04/26 12:46:02;;;;;;;13.40;11.95;;;;;;;;;;5053321;28;20025;-60
2022/04/26 12:51:38;;;;;;;13.27;11.48;;;;;;;;;;5022191;28;20044;-60
2022/04/26 12:54:09;;;;;;;15.98;13.35;;;;;;;;;;5036620;28;20053;-60
2022/04/26 12:56:34;;;;;;;16.77;14.02;;;;;;;;;;5034249;28;20049;-59
2022/04/26 12:59:00;;;;;;;17.40;14.60;;;;;;;;;;5047100;28;20470;-61
2022/04/26 13:01:25;;;;;;;20.40;15.15;;;;;;;;;;5037399;28;20039;-61
2022/04/26 13:03:51;;;;;;;21.48;15.27;;;;;;;;;;5041586;28;20034;-60
2022/04/26 13:06:18;;;;;;;18.13;15.70;;;;;;;;;;5050885;28;20041;-60
2022/04/26 13:08:48;;;;;;;20.77;16.15;;;;;;;;;;5044994;28;20025;-60
2022/04/26 13:11:17;;;;;;;20.65;15.45;;;;;;;;;;5050594;28;20068;-61
2022/04/26 13:13:46;;;;;;;20.27;16.05;;;;;;;;;;5031550;28;20105;-61
2022/04/26 13:16:12;;;;;;;21.83;15.57;;;;;;;;;;5033359;28;20029;-61
2022/04/26 13:18:38;;;;;;;20.05;15.23;;;;;;;;;;5033384;28;20030;-61
2022/04/26 13:21:05;;;;;;;20.13;15.40;;;;;;;;;;5024545;28;20510;-62
2022/04/26 13:23:34;;;;;;;20.65;15.32;;;;;;;;;;5032463;28;20053;-60
2022/04/26 13:26:00;;;;;;;21.48;15.48;;;;;;;;;;5043215;28;20029;-62
2022/04/26 13:28:26;;;;;;;20.83;14.60;;;;;;;;;;5038950;28;20479;-61
2022/04/26 13:30:52;;;;;;;17.38;14.07;;;;;;;;;;5050307;28;20029;-62
2022/04/26 13:33:17;;;;;;;19.08;14.38;;;;;;;;;;5013597;28;20038;-60
2022/04/26 13:35:43;;;;;;;21.73;14.23;;;;;;;;;;5049593;28;20032;-60
2022/04/26 13:38:11;;;;;;;19.50;14.20;;;;;;;;;;5042718;28;20040;-61
2022/04/26 13:40:39;;;;;;;20.30;14.00;;;;;;;;;;5045653;28;20489;-60
2022/04/26 13:43:05;;;;;;;19.25;13.98;;;;;;;;;;5047956;28;20347;-61
2022/04/26 13:45:32;;;;;;;19.23;13.60;;;;;;;;;;5044797;28;20060;-60
2022/04/26 13:48:08;;;;;;;18.17;12.93;;;;;;;;;;5047865;28;20033;-61
2022/04/26 13:50:34;;;;;;;17.08;12.85;;;;;;;;;;5035538;28;21157;-61
2022/04/26 13:52:59;;;;;;;17.23;12.63;;;;;;;;;;5035848;28;20044;-61
2022/04/26 13:55:26;;;;;;;17.60;13.40;;;;;;;;;;5031862;28;20049;-59
2022/04/26 13:57:54;;;;;;;16.60;12.65;;;;;;;;;;5030308;28;20562;-62
2022/04/26 14:00:20;;;;;;;18.63;13.68;;;;;;;;;;5052822;28;20192;-60
2022/04/26 14:02:46;;;;;;;16.73;12.38;;;;;;;;;;5050109;28;20053;-60
2022/04/26 14:05:13;;;;;;;16.48;12.50;;;;;;;;;;5033283;28;20044;-60
2022/04/26 14:07:39;;;;;;;16.27;12.75;;;;;;;;;;5032248;28;20029;-61
2022/04/26 14:10:05;;;;;;;18.38;12.77;;;;;;;;;;5024259;28;20498;-61
2022/04/26 14:12:31;;;;;;;17.08;12.00;;;;;;;;;;5027366;28;20025;-62
2022/04/26 14:23:08;;;;;;;14.85;11.90;;;;;;;;;;5027346;28;20076;-61
2022/04/26 14:25:33;;;;;;;15.60;10.93;;;;;;;;;;5032475;28;20038;-60
2022/04/26 14:27:59;;;;;;;17.15;11.60;;;;;;;;;;5040095;28;20573;-60
2022/04/26 14:30:24;;;;;;;14.73;11.27;;;;;;;;;;5013787;28;20033;-61
2022/04/26 14:32:50;;;;;;;14.93;11.02;;;;;;;;;;5039363;28;20035;-61
2022/04/26 14:35:15;;;;;;;16.25;10.73;;;;;;;;;;5049251;28;20075;-62
2022/04/26 14:37:41;;;;;;;14.60;10.90;;;;;;;;;;5038982;28;20127;-63
2022/04/26 14:40:09;;;;;;;14.32;10.75;;;;;;;;;;5031484;28;20033;-64
2022/04/26 14:42:35;;;;;;;15.55;10.85;;;;;;;;;;5037757;28;20033;-64
2022/04/26 14:45:00;;;;;;;14.63;10.60;;;;;;;;;;5031980;28;20036;-63
2022/04/26 14:47:26;;;;;;;17.95;10.00;;;;;;;;;;5035784;28;20025;-63
2022/04/26 14:49:59;;;;;;;12.77;10.07;;;;;;;;;;5047697;28;20033;-63
2022/04/26 14:52:24;;;;;;;13.77;10.10;;;;;;;;;;5042356;28;20375;-64
2022/04/26 14:54:51;;;;;;;12.98;9.82;;;;;;;;;;5030377;28;20030;-64
2022/04/26 14:57:19;;;;;;;12.55;9.35;;;;;;;;;;5051166;28;20398;-64
2022/04/26 14:59:48;;;;;;;12.65;9.55;;;;;;;;;;5050635;28;20024;-64
2022/04/26 15:02:18;;;;;;;14.98;9.90;;;;;;;;;;5022769;28;20292;-63
2022/04/26 15:04:48;;;;;;;13.50;9.30;;;;;;;;;;5012309;28;20029;-63
2022/04/26 15:07:14;;;;;;;15.73;9.00;;;;;;;;;;5037621;28;20902;-63
2022/04/26 15:09:52;;;;;;;11.38;8.68;;;;;;;;;;5011298;28;20034;-64
2022/04/26 15:17:48;;;;;;;11.65;8.10;;;;;;;;;;5051486;28;20493;-64
2022/04/26 15:20:15;;;;;;;12.20;8.18;;;;;;;;;;5039609;28;20055;-65
2022/04/26 15:22:41;;;;;;;13.95;8.20;;;;;;;;;;5010325;28;20034;-64
2022/04/26 15:25:09;;;;;;;12.38;8.25;;;;;;;;;;5047238;28;20128;-64
2022/04/26 15:27:40;;;;;;;12.25;8.35;;;;;;;;;;5037416;28;20075;-64
2022/04/26 15:30:11;;;;;;;10.85;7.95;;;;;;;;;;5028756;28;20033;-64
2022/04/26 15:32:37;;;;;;;11.88;7.93;;;;;;;;;;5023472;28;20033;-64
2022/04/26 15:35:03;;;;;;;11.82;8.48;;;;;;;;;;5015112;28;20041;-63
2022/04/26 15:37:29;;;;;;;11.90;8.07;;;;;;;;;;5039432;28;20030;-64
2022/04/26 15:39:55;;;;;;;11.32;7.78;;;;;;;;;;5030357;28;20091;-63
2022/04/26 15:42:24;;;;;;;10.75;7.45;;;;;;;;;;5030079;28;20475;-64
2022/04/26 15:44:50;;;;;;;11.68;8.13;;;;;;;;;;5042599;28;20104;-65
2022/04/26 15:47:15;;;;;;;12.80;7.43;;;;;;;;;;5049679;28;20029;-64
2022/04/26 15:49:41;;;;;;;11.50;7.38;;;;;;;;;;5049955;28;20040;-64
2022/04/26 15:52:07;;;;;;;10.32;7.35;;;;;;;;;;5046207;28;20029;-64
2022/04/26 15:54:35;;;;;;;9.85;7.25;;;;;;;;;;5026416;28;20379;-64
2022/04/26 15:57:01;;;;;;;11.63;7.57;;;;;;;;;;5028625;28;20116;-64
2022/04/26 15:59:27;;;;;;;9.30;7.03;;;;;;;;;;5030183;28;20068;-65
2022/04/26 16:01:52;;;;;;;9.27;6.75;;;;;;;;;;5028425;28;20056;-64
2022/04/26 16:04:18;;;;;;;12.52;6.68;;;;;;;;;;5031558;28;20425;-63
2022/04/26 16:06:43;;;;;;;13.25;7.45;;;;;;;;;;5031417;28;20025;-68
2022/04/26 16:22:52;;;;;;;9.95;5.97;;;;;;;;;;5018429;28;20069;-65
2022/04/26 16:25:18;;;;;;;11.20;6.47;;;;;;;;;;5039746;28;20032;-64
2022/04/26 16:27:43;;;;;;;10.57;7.72;;;;;;;;;;5020056;28;20049;-65
2022/04/26 16:30:10;;;;;;;10.30;8.55;;;;;;;;;;5017292;28;20029;-61
2022/04/26 16:32:36;;;;;;;11.50;8.02;;;;;;;;;;5033464;28;20111;-61
2022/04/26 16:35:01;;;;;;;8.52;6.15;;;;;;;;;;5050792;28;20064;-61
2022/04/26 16:37:27;;;;;;;8.10;6.10;;;;;;;;;;5037575;28;20362;-61
2022/04/26 16:39:52;;;;;;;8.50;5.88;;;;;;;;;;5019549;28;20134;-61
2022/04/26 16:42:18;;;;;;;8.60;5.82;;;;;;;;;;5053506;28;20158;-60
2022/04/26 16:44:44;;;;;;;9.25;5.88;;;;;;;;;;5042621;28;20033;-60
2022/04/26 16:47:13;;;;;;;9.80;5.80;;;;;;;;;;5012591;28;20475;-61
2022/04/26 16:49:39;;;;;;;9.82;5.82;;;;;;;;;;5026231;28;20148;-60
2022/04/26 16:52:06;;;;;;;10.30;6.22;;;;;;;;;;5022318;28;20041;-61
2022/04/26 16:54:31;;;;;;;8.32;5.80;;;;;;;;;;5045555;28;20043;-60
2022/04/26 16:56:57;;;;;;;8.00;5.30;;;;;;;;;;5051528;28;20028;-60
2022/04/26 16:59:24;;;;;;;7.68;5.28;;;;;;;;;;5046558;28;20091;-60
2022/04/26 17:01:53;;;;;;;10.60;5.35;;;;;;;;;;5040049;28;20037;-60
2022/04/26 17:04:21;;;;;;;8.70;5.78;;;;;;;;;;5050047;28;20115;-60
2022/04/26 17:06:47;;;;;;;8.23;5.30;;;;;;;;;;5037842;28;20084;-60
2022/04/26 17:09:12;;;;;;;8.23;5.80;;;;;;;;;;5017886;28;20038;-60
2022/04/26 17:11:44;;;;;;;8.82;5.60;;;;;;;;;;5034794;28;20025;-60
2022/04/26 17:14:10;;;;;;;7.88;5.70;;;;;;;;;;5053484;28;20083;-60
2022/04/26 17:16:36;;;;;;;8.18;5.50;;;;;;;;;;5037302;28;20053;-60
2022/04/26 17:19:03;;;;;;;8.55;5.70;;;;;;;;;;5029815;28;20072;-61
2022/04/26 17:21:29;;;;;;;9.63;5.43;;;;;;;;;;5029341;28;20029;-60
2022/04/26 17:23:55;;;;;;;7.20;5.72;;;;;;;;;;5032131;28;20052;-60
2022/04/26 17:26:21;;;;;;;8.15;6.22;;;;;;;;;;5037353;28;20155;-60
2022/04/26 17:28:46;;;;;;;10.00;6.18;;;;;;;;;;5031362;28;20030;-61
2022/04/26 17:31:14;;;;;;;9.93;7.40;;;;;;;;;;5032801;28;20041;-62
2022/04/26 17:33:44;;;;;;;10.55;7.50;;;;;;;;;;5035172;28;20030;-62
2022/04/26 17:36:11;;;;;;;11.18;7.68;;;;;;;;;;5051065;28;20059;-62
2022/04/26 17:38:37;;;;;;;10.23;7.80;;;;;;;;;;5050245;28;20044;-61
2022/04/26 17:41:02;;;;;;;11.60;6.22;;;;;;;;;;5051683;28;20122;-61
2022/04/26 17:43:28;;;;;;;11.15;7.70;;;;;;;;;;5031098;28;20167;-60
2022/04/26 17:45:53;;;;;;;8.48;6.38;;;;;;;;;;5032331;28;20025;-60
2022/04/26 17:48:19;;;;;;;12.77;6.28;;;;;;;;;;5049591;28;20033;-60
2022/04/26 17:50:45;;;;;;;9.80;6.07;;;;;;;;;;5042625;28;20223;-61
2022/04/26 17:58:40;;;;;;;10.18;6.30;;;;;;;;;;5051396;28;20121;-61
2022/04/26 18:01:05;;;;;;;9.07;6.35;;;;;;;;;;5047443;28;20451;-61
2022/04/26 18:03:31;;;;;;;11.80;6.18;;;;;;;;;;5032721;28;20040;-61
2022/04/26 18:05:56;;;;;;;9.32;6.18;;;;;;;;;;5039928;28;20040;-61
2022/04/26 18:08:23;;;;;;;11.07;6.25;;;;;;;;;;5047377;28;20030;-61
2022/04/26 18:10:50;;;;;;;9.82;6.10;;;;;;;;;;5037069;28;20059;-62
2022/04/26 18:13:16;;;;;;;10.75;6.70;;;;;;;;;;5050366;28;20041;-61
2022/04/26 18:15:42;;;;;;;9.35;6.40;;;;;;;;;;5046242;28;20037;-61
2022/04/26 18:18:07;;;;;;;11.38;6.68;;;;;;;;;;5051777;28;20032;-62
2022/04/26 18:20:32;;;;;;;10.52;6.25;;;;;;;;;;5050916;28;20029;-61
2022/04/26 18:22:58;;;;;;;14.25;6.90;;;;;;;;;;5052470;28;20406;-61
2022/04/26 18:28:07;;;;;;;13.02;6.57;;;;;;;;;;5021719;28;20041;-61
2022/04/26 18:30:33;;;;;;;15.38;6.65;;;;;;;;;;5042660;28;20029;-61
2022/04/26 18:32:58;;;;;;;10.05;6.50;;;;;;;;;;5050266;28;20044;-61
2022/04/26 18:35:23;;;;;;;12.32;6.68;;;;;;;;;;5050632;28;20616;-61
2022/04/26 18:37:49;;;;;;;8.77;6.78;;;;;;;;;;5049062;28;20427;-61
2022/04/26 18:40:17;;;;;;;11.57;6.70;;;;;;;;;;5049897;28;20087;-60
2022/04/26 18:42:42;;;;;;;12.10;7.05;;;;;;;;;;5045846;28;20495;-60
2022/04/26 18:45:08;;;;;;;11.57;6.80;;;;;;;;;;5042454;28;20120;-60
2022/04/26 18:47:33;;;;;;;11.63;7.32;;;;;;;;;;5050150;28;20441;-63
2022/04/26 18:49:59;;;;;;;11.95;7.45;;;;;;;;;;5038545;28;20065;-60
2022/04/26 18:52:24;;;;;;;11.45;7.65;;;;;;;;;;5033622;28;20029;-62
2022/04/26 18:54:50;;;;;;;12.10;7.28;;;;;;;;;;5051767;28;20033;-61
2022/04/26 18:57:17;;;;;;;14.07;7.28;;;;;;;;;;5040631;28;20474;-61
2022/04/26 18:59:43;;;;;;;10.70;7.00;;;;;;;;;;5064015;28;20048;-60